Wabasso, Florida
Current Conditions -  °F | °C
As of 9:53 AM on Friday 31 Oct 2014 (Local Time) from KVRB Reporting Station
Scattered Clouds Scattered Clouds  
Wind Chill: 74°   Ceiling: Unl
Heat Index: 74°   Visibility: 10mi
Dew Point: 68°   Wind: 8mph
Humidity: 82%   Direction: 280°W
Pressure: 29.86"   Gusts: NA
Location:  27.75°N, 80.44°W
Report Text: KVRB 311353Z 28007KT 10SM SCT100 23/20 A2986 RMK AO2 SLP111 T02330200 $
Loading
Personal Weather Stations






























Interactive Weather Map
Tropical Storm Tracking
New forecast layout! Learn more

10-Day Weather Forecast

Advertisements
Track Severe Weather on mobile